Time;durP1;ratioP1;P1;durP2;ratioP2;P2;SDS_P1;SDS_P2;PMS_P1;PMS_P2;Temp;Humidity;BMP_temperature;BMP_pressure;BME280_temperature;BME280_humidity;BME280_pressure;Samples;Min_cycle;Max_cycle;Signal;HPM_P1;HPM_P2
2021/12/17 00:01:10;;;;;;;25.73;14.93;;;;;;;1.67;68.96;94576.44;2067976;69;20164;-68
2021/12/17 00:03:44;;;;;;;27.10;15.93;;;;;;;1.73;68.30;94568.84;2067793;69;20136;-68
2021/12/17 00:06:17;;;;;;;26.35;15.95;;;;;;;1.56;68.89;94565.34;2064819;69;20187;-68
2021/12/17 00:08:48;;;;;;;26.90;15.75;;;;;;;1.41;68.97;94564.84;2067967;69;20224;-69
2021/12/17 00:11:14;;;;;;;27.42;16.02;;;;;;;1.51;68.63;94558.53;2067965;69;20227;-69
2021/12/17 00:13:42;;;;;;;25.52;15.15;;;;;;;1.36;69.36;94562.84;2064093;69;20133;-68
2021/12/17 00:16:21;;;;;;;25.00;15.02;;;;;;;1.57;68.82;94541.88;2067554;69;20168;-69
2021/12/17 00:19:13;;;;;;;28.75;16.27;;;;;;;1.50;68.82;94572.91;2067768;69;20145;-66
2021/12/17 00:48:23;;;;;;;27.63;15.43;;;;;;;1.15;67.88;94560.34;2067976;69;20145;-67
2021/12/17 00:49:20;;;;;;;25.45;14.68;;;;;;;1.02;68.26;94560.81;2067831;69;20176;-67
2021/12/17 00:54:29;;;;;;;26.77;15.55;;;;;;;1.06;67.77;94549.47;2063607;69;20280;-70
2021/12/17 00:56:57;;;;;;;27.05;15.65;;;;;;;1.01;68.09;94551.00;2063502;69;20140;-66
2021/12/17 00:59:23;;;;;;;27.73;15.10;;;;;;;0.97;68.16;94547.72;2064210;69;20248;-67
2021/12/17 01:01:52;;;;;;;26.88;15.65;;;;;;;0.92;67.84;94545.69;2064231;69;20306;-66
2021/12/17 01:04:18;;;;;;;28.35;15.70;;;;;;;0.86;67.92;94539.38;2063966;69;20228;-66
2021/12/17 01:06:45;;;;;;;27.83;15.77;;;;;;;0.86;67.99;94556.00;2063884;69;20136;-67
2021/12/17 01:09:14;;;;;;;24.92;14.20;;;;;;;0.66;67.99;94543.13;2067415;69;20144;-66
2021/12/17 01:11:40;;;;;;;25.85;14.93;;;;;;;0.55;68.51;94548.69;2066891;69;20184;-67
2021/12/17 01:14:43;;;;;;;25.65;14.85;;;;;;;0.66;67.38;94554.22;2056631;69;20159;-67
2021/12/17 01:17:41;;;;;;;25.80;14.80;;;;;;;0.53;68.28;94542.09;2057916;69;20236;-67
2021/12/17 01:20:46;;;;;;;27.20;15.15;;;;;;;0.57;68.46;94554.47;2064089;69;20174;-67
2021/12/17 01:35:21;;;;;;;27.95;15.55;;;;;;;0.25;68.24;94574.03;2067927;69;20618;-69
2021/12/17 01:43:49;;;;;;;30.27;15.82;;;;;;;-0.01;69.02;94590.03;2068498;69;20156;-68
2021/12/17 01:46:21;;;;;;;25.27;14.88;;;;;;;-0.06;69.42;94588.75;2065096;69;20156;-68
2021/12/17 01:59:59;;;;;;;25.95;14.65;;;;;;;-0.15;69.01;94579.88;2065239;69;20141;-68
2021/12/17 02:02:27;;;;;;;29.38;15.40;;;;;;;-0.20;69.43;94592.44;2065157;69;20233;-67
2021/12/17 02:04:53;;;;;;;23.02;14.00;;;;;;;-0.19;69.22;94596.72;2065129;69;20149;-67
2021/12/17 02:07:19;;;;;;;25.83;14.57;;;;;;;-0.17;69.21;94608.06;2065074;69;20160;-67
2021/12/17 02:21:03;;;;;;;25.58;14.23;;;;;;;-0.42;69.89;94523.88;2065092;69;20171;-68
2021/12/17 02:28:56;;;;;;;26.05;14.38;;;;;;;-0.38;71.26;94521.63;2065219;69;20206;-70
2021/12/17 02:31:29;;;;;;;;;;;;;;;-0.45;70.33;94516.59;2068753;69;20140;-68
2021/12/17 02:34:05;;;;;;;25.88;13.55;;;;;;;-0.43;69.72;94519.59;2068527;69;20164;-68
2021/12/17 02:36:34;;;;;;;26.60;14.43;;;;;;;-0.58;70.78;94517.00;2062178;69;20153;-69
2021/12/17 02:47:17;;;;;;;26.02;14.02;;;;;;;-0.59;69.64;94526.56;2065058;69;20213;-68
2021/12/17 02:49:44;;;;;;;26.65;15.27;;;;;;;-0.62;70.26;94533.06;2065094;69;20151;-68
2021/12/17 02:52:15;;;;;;;27.90;15.40;;;;;;;-0.81;71.11;94527.19;2068528;69;20599;-68
2021/12/17 02:54:42;;;;;;;26.92;14.35;;;;;;;-0.84;71.35;94530.16;2068509;69;20141;-69
2021/12/17 02:57:12;;;;;;;26.98;14.95;;;;;;;-0.79;70.71;94537.72;2068019;69;20137;-69
2021/12/17 02:59:38;;;;;;;28.63;15.13;;;;;;;-1.10;71.01;94538.50;2068464;69;20628;-68
2021/12/17 03:02:07;;;;;;;28.20;14.75;;;;;;;-0.98;71.36;94539.38;2068267;69;20195;-71
2021/12/17 03:04:35;;;;;;;26.60;14.57;;;;;;;-0.96;70.37;94539.63;2068245;69;20264;-68
2021/12/17 03:07:02;;;;;;;24.83;13.45;;;;;;;-0.97;70.06;94535.34;2064760;69;20649;-70
2021/12/17 03:10:14;;;;;;;27.02;14.88;;;;;;;-0.96;69.95;94523.81;2068397;69;20543;-70
2021/12/17 03:12:20;;;;;;;25.15;14.20;;;;;;;-0.98;69.74;94520.75;2063762;69;20603;-69
2021/12/17 03:14:57;;;;;;;;;;;;;;;-1.11;70.44;94537.75;2068126;69;20145;-69
2021/12/17 03:17:51;;;;;;;26.60;14.52;;;;;;;-1.02;70.32;94534.81;2064944;69;20079;-69
2021/12/17 03:25:37;;;;;;;26.35;14.07;;;;;;;-1.26;69.43;94541.91;2071754;69;20228;-71
2021/12/17 03:28:03;;;;;;;27.45;13.75;;;;;;;-1.24;69.89;94539.38;2068371;69;20243;-69
2021/12/17 03:30:29;;;;;;;26.35;13.88;;;;;;;-1.24;70.28;94537.38;2065690;69;20160;-70
2021/12/17 03:32:55;;;;;;;25.10;14.25;;;;;;;-1.21;69.82;94543.94;2065473;69;20218;-68
2021/12/17 03:35:21;;;;;;;23.58;13.80;;;;;;;-1.33;69.60;94548.59;2068398;69;20141;-69
2021/12/17 03:37:46;;;;;;;27.48;14.80;;;;;;;-1.45;70.68;94549.78;2068024;69;20144;-69
2021/12/17 03:40:15;;;;;;;26.05;14.20;;;;;;;-1.36;69.91;94555.13;2065017;69;20242;-68
2021/12/17 03:42:46;;;;;;;25.60;14.65;;;;;;;-1.34;70.44;94549.84;2067540;69;20133;-70
2021/12/17 03:45:13;;;;;;;28.30;13.73;;;;;;;-1.33;70.17;94538.34;2064858;69;20607;-68
2021/12/17 03:47:53;;;;;;;27.67;14.63;;;;;;;-1.26;70.39;94533.59;2064938;69;20148;-69
2021/12/17 03:50:21;;;;;;;26.52;14.00;;;;;;;-1.27;71.12;94524.56;2064960;69;20206;-68
2021/12/17 03:52:47;;;;;;;27.73;14.85;;;;;;;-1.40;71.92;94522.19;2068168;69;20180;-67
2021/12/17 03:55:13;;;;;;;30.20;15.10;;;;;;;-1.75;72.83;94527.88;2066913;69;20199;-69
2021/12/17 03:57:43;;;;;;;26.88;14.93;;;;;;;-1.61;72.66;94521.47;2068333;69;20152;-68
2021/12/17 04:00:11;;;;;;;25.13;13.43;;;;;;;-1.38;70.87;94530.72;2071625;69;20149;-68
2021/12/17 04:02:44;;;;;;;26.60;13.82;;;;;;;-1.40;71.32;94524.94;2071755;69;20154;-69
2021/12/17 04:05:15;;;;;;;28.80;15.68;;;;;;;-1.43;71.16;94516.88;2065614;69;20247;-71
2021/12/17 04:07:40;;;;;;;26.17;14.68;;;;;;;-1.46;70.37;94518.63;2071513;69;20232;-68
2021/12/17 04:10:09;;;;;;;28.63;15.13;;;;;;;-1.50;70.02;94522.84;2071820;69;20171;-71
2021/12/17 04:15:14;;;;;;;28.17;14.65;;;;;;;-1.53;70.40;94527.34;2068369;69;20151;-69
2021/12/17 04:17:47;;;;;;;28.73;14.98;;;;;;;-1.59;69.77;94527.28;2071674;69;20578;-69
2021/12/17 04:20:13;;;;;;;25.52;13.75;;;;;;;-1.45;69.95;94522.16;2068363;69;20278;-68
2021/12/17 04:22:39;;;;;;;27.60;14.82;;;;;;;-1.62;69.74;94521.97;2067589;69;20267;-67
2021/12/17 04:25:05;;;;;;;27.05;15.00;;;;;;;-1.68;70.58;94529.47;2064963;69;20148;-68
2021/12/17 04:27:30;;;;;;;31.23;15.65;;;;;;;-1.78;69.94;94539.91;2064958;69;20160;-68
2021/12/17 04:29:57;;;;;;;27.35;14.85;;;;;;;-1.79;70.80;94546.66;2064957;69;20237;-68
2021/12/17 04:32:23;;;;;;;27.88;14.70;;;;;;;-1.78;70.62;94550.19;2064949;69;20292;-69
2021/12/17 04:34:49;;;;;;;30.10;16.08;;;;;;;-1.69;70.52;94561.09;2064963;69;20233;-68
2021/12/17 04:37:17;;;;;;;31.80;16.83;;;;;;;-1.65;70.43;94567.91;2064831;69;20232;-71
2021/12/17 04:39:53;;;;;;;32.03;16.45;;;;;;;-1.74;70.44;94576.34;2064950;69;20137;-73
2021/12/17 04:42:32;;;;;;;34.78;16.90;;;;;;;-1.72;70.98;94573.09;2064921;69;20160;-71
2021/12/17 04:44:59;;;;;;;34.42;17.58;;;;;;;-1.83;70.77;94577.25;2062266;69;20278;-69
2021/12/17 04:58:30;;;;;;;41.40;20.38;;;;;;;-1.46;70.93;94556.56;2068253;69;20145;-68
2021/12/17 05:00:58;;;;;;;39.33;20.38;;;;;;;-1.54;71.03;94562.50;2065406;69;20151;-71
2021/12/17 05:03:24;;;;;;;37.92;19.75;;;;;;;-1.64;71.19;94561.13;2065404;69;20157;-69
2021/12/17 05:05:50;;;;;;;39.55;19.67;;;;;;;-1.58;71.68;94569.47;2065170;69;20176;-72
2021/12/17 05:08:23;;;;;;;35.92;18.80;;;;;;;-1.61;72.82;94573.97;2065411;69;20239;-69
2021/12/17 05:19:02;;;;;;;31.85;14.10;;;;;;;-1.00;71.96;94589.63;2068726;69;20144;-71
2021/12/17 05:21:31;;;;;;;54.83;28.50;;;;;;;-1.69;73.00;94594.97;2062834;69;20144;-70
2021/12/17 05:23:57;;;;;;;50.20;26.15;;;;;;;-1.56;72.64;94591.84;2065425;69;20239;-69
2021/12/17 05:26:23;;;;;;;47.47;24.67;;;;;;;-1.25;72.04;94596.69;2065335;69;20235;-70
2021/12/17 05:28:55;;;;;;;47.30;23.45;;;;;;;-1.24;71.73;94591.91;2068151;69;20159;-69
2021/12/17 05:31:25;;;;;;;42.33;22.13;;;;;;;-1.18;72.19;94587.22;2065386;69;20149;-72
2021/12/17 05:33:56;;;;;;;36.97;19.20;;;;;;;-1.18;72.32;94578.91;2065334;69;20172;-70
2021/12/17 05:36:25;;;;;;;34.65;18.33;;;;;;;-1.08;71.76;94585.78;2065242;69;20136;-72
2021/12/17 05:39:01;;;;;;;39.47;24.25;;;;;;;-1.10;72.25;94582.72;2065337;69;20148;-70
2021/12/17 05:41:26;;;;;;;38.83;22.65;;;;;;;-1.02;72.20;94575.53;2065305;69;20144;-70
2021/12/17 05:44:14;;;;;;;34.60;18.58;;;;;;;-0.89;71.45;94580.66;2063122;69;20228;-70
2021/12/17 05:46:50;;;;;;;36.15;18.70;;;;;;;-0.90;71.78;94587.44;2065330;69;20140;-72
2021/12/17 05:49:22;;;;;;;32.38;17.05;;;;;;;-0.86;71.59;94593.50;2065316;69;20144;-69
2021/12/17 05:51:49;;;;;;;29.58;16.83;;;;;;;-0.82;71.61;94585.75;2062394;69;20132;-70
2021/12/17 05:54:15;;;;;;;32.65;17.52;;;;;;;-0.79;71.48;94576.47;2068603;69;20148;-71
2021/12/17 05:56:41;;;;;;;32.63;17.50;;;;;;;-0.74;71.23;94578.50;2065246;69;20156;-68
2021/12/17 05:59:07;;;;;;;31.10;16.42;;;;;;;-0.74;71.64;94580.50;2065231;69;20148;-70
2021/12/17 06:01:33;;;;;;;32.53;17.17;;;;;;;-0.87;71.46;94573.41;2068605;69;20144;-69
2021/12/17 06:03:59;;;;;;;37.42;18.95;;;;;;;-0.92;72.15;94587.91;2065238;69;20168;-69
2021/12/17 06:06:32;;;;;;;38.92;18.08;;;;;;;-0.72;71.68;94589.09;2062340;69;20531;-70
2021/12/17 06:09:04;;;;;;;34.45;18.13;;;;;;;-0.68;71.22;94581.34;2065273;69;20188;-69
2021/12/17 06:11:31;;;;;;;36.60;19.58;;;;;;;-0.70;71.16;94583.81;2065219;69;20511;-70
2021/12/17 06:13:56;;;;;;;39.78;21.17;;;;;;;-0.67;71.62;94585.59;2065222;69;20226;-69
2021/12/17 06:16:27;;;;;;;39.50;20.85;;;;;;;-0.73;71.30;94590.31;2065201;69;20148;-70
2021/12/17 06:18:54;;;;;;;38.05;20.75;;;;;;;-0.87;71.94;94591.97;2065238;69;20152;-69
2021/12/17 06:21:20;;;;;;;39.72;21.38;;;;;;;-0.78;71.96;94591.78;2067880;69;20631;-69
2021/12/17 06:23:45;;;;;;;42.65;22.67;;;;;;;-0.71;71.49;94585.81;2065143;69;20172;-68
2021/12/17 06:26:11;;;;;;;43.45;24.45;;;;;;;-0.68;71.49;94590.38;2065186;69;20139;-70
2021/12/17 06:28:39;;;;;;;41.53;23.38;;;;;;;-0.61;71.77;94597.47;2065194;69;20192;-68
2021/12/17 06:31:05;;;;;;;40.97;22.00;;;;;;;-0.56;71.54;94600.25;2065234;69;20240;-69
2021/12/17 06:33:33;;;;;;;39.65;20.90;;;;;;;-0.55;71.10;94598.25;2065214;69;20165;-68
2021/12/17 06:35:58;;;;;;;38.15;21.10;;;;;;;-0.46;70.89;94586.25;2065047;69;20233;-68
2021/12/17 06:38:25;;;;;;;34.92;19.70;;;;;;;-0.58;71.46;94591.72;2067959;69;20133;-72
2021/12/17 06:40:53;;;;;;;35.63;19.60;;;;;;;-0.54;71.32;94591.50;2065177;69;20149;-71
2021/12/17 06:43:25;;;;;;;35.15;18.88;;;;;;;-0.52;71.67;94598.03;2065144;69;20247;-68
2021/12/17 06:46:01;;;;;;;37.78;20.30;;;;;;;-0.76;72.41;94600.38;2067984;69;20148;-69
2021/12/17 06:48:29;;;;;;;43.72;23.58;;;;;;;-0.47;71.49;94612.41;2065150;69;20145;-71
2021/12/17 07:33:58;;;;;;;60.47;26.77;;;;;;;-0.56;72.13;94600.25;2065201;69;20242;-69
2021/12/17 07:39:25;;;;;;;51.88;23.50;;;;;;;-0.49;71.70;94601.06;2065039;69;20149;-68
2021/12/17 07:42:16;;;;;;;47.90;22.83;;;;;;;-0.45;71.58;94596.84;2067787;69;20210;-72
2021/12/17 07:44:54;;;;;;;48.38;25.10;;;;;;;-0.56;72.00;94596.75;2068468;69;20681;-71
2021/12/17 07:47:38;;;;;;;46.35;23.52;;;;;;;-0.71;72.50;94605.19;2064972;69;20592;-69
2021/12/17 07:50:19;;;;;;;61.63;28.50;;;;;;;-0.68;72.54;94606.97;2068536;69;20155;-72
2021/12/17 07:53:04;;;;;;;62.05;27.55;;;;;;;-0.55;71.88;94604.56;2064082;69;20142;-70
2021/12/17 07:55:38;;;;;;;56.10;25.92;;;;;;;-0.60;72.03;94598.97;2068306;69;20239;-71
2021/12/17 07:58:07;;;;;;;48.20;23.58;;;;;;;-0.58;72.01;94613.09;2068525;69;20145;-71
2021/12/17 08:00:37;;;;;;;44.55;22.67;;;;;;;-0.60;71.83;94616.31;2068132;69;20301;-71
2021/12/17 08:03:04;;;;;;;38.53;19.67;;;;;;;-0.58;71.83;94604.78;2068301;69;20538;-70
2021/12/17 08:05:48;;;;;;;38.85;19.77;;;;;;;-0.56;71.81;94607.81;2068171;69;20160;-71
2021/12/17 08:08:15;;;;;;;34.95;19.23;;;;;;;-0.48;71.40;94603.34;2067986;69;20229;-72
2021/12/17 08:10:43;;;;;;;37.55;20.00;;;;;;;-0.52;71.13;94603.56;2068296;69;20137;-70
2021/12/17 08:13:16;;;;;;;39.70;19.63;;;;;;;-0.55;71.29;94598.25;2071316;69;20144;-72
2021/12/17 08:15:49;;;;;;;35.92;18.73;;;;;;;-0.58;71.44;94602.03;2067071;69;20147;-69
2021/12/17 08:18:42;;;;;;;40.65;21.38;;;;;;;-0.53;71.10;94601.31;2068242;69;20610;-72
2021/12/17 08:31:32;;;;;;;42.03;21.88;;;;;;;-0.82;71.89;94614.16;2065115;69;20136;-73
2021/12/17 08:33:59;;;;;;;48.33;23.80;;;;;;;-0.60;71.57;94613.56;2066556;69;20176;-72
2021/12/17 08:36:25;;;;;;;61.92;27.45;;;;;;;-0.51;70.88;94607.09;2064852;69;20140;-71
2021/12/17 08:38:51;;;;;;;72.38;31.05;;;;;;;-0.56;71.28;94600.25;2065266;69;20168;-70
2021/12/17 08:41:28;;;;;;;51.47;24.88;;;;;;;-0.62;71.61;94618.84;2068255;69;20186;-71
2021/12/17 08:43:55;;;;;;;46.25;23.65;;;;;;;-0.95;72.50;94613.03;2071552;69;20144;-67
2021/12/17 08:46:22;;;;;;;47.10;24.40;;;;;;;-0.88;72.28;94612.59;2068256;69;20148;-69
2021/12/17 08:49:00;;;;;;;50.58;25.63;;;;;;;-0.94;72.41;94615.31;2065524;69;20188;-69
2021/12/17 08:51:46;;;;;;;62.08;28.60;;;;;;;-0.60;71.36;94621.09;2070488;69;20247;-69
2021/12/17 08:54:12;;;;;;;54.17;26.52;;;;;;;-0.53;72.28;94624.19;2068145;69;20251;-68
2021/12/17 08:56:49;;;;;;;52.97;26.42;;;;;;;-0.09;72.73;94622.19;2068196;69;20241;-68
2021/12/17 08:59:18;;;;;;;58.60;26.02;;;;;;;-0.18;72.72;94625.16;2068128;69;20171;-67
2021/12/17 09:02:22;;;;;;;51.25;25.48;;;;;;;0.29;73.61;94620.88;2059856;69;20319;-68
2021/12/17 09:04:56;;;;;;;44.65;24.77;;;;;;;0.66;70.88;94622.78;2059768;69;20157;-71
2021/12/17 09:07:22;;;;;;;56.50;28.38;;;;;;;0.90;70.54;94634.19;2063042;69;20140;-70
2021/12/17 09:09:53;;;;;;;54.60;29.27;;;;;;;0.95;70.12;94636.19;2068185;69;20140;-70
2021/12/17 09:12:32;;;;;;;50.72;26.60;;;;;;;1.05;70.37;94642.25;2067452;69;20163;-71
2021/12/17 09:14:57;;;;;;;50.10;26.45;;;;;;;1.52;71.90;94642.59;2067912;69;20183;-72
2021/12/17 09:17:46;;;;;;;46.95;24.55;;;;;;;1.68;70.37;94655.69;2069734;69;20697;-71
2021/12/17 09:20:15;;;;;;;53.47;29.30;;;;;;;1.89;69.33;94658.22;2067876;69;20156;-71
2021/12/17 09:22:41;;;;;;;53.33;27.90;;;;;;;1.69;67.68;94656.44;2067787;69;20157;-73
2021/12/17 09:25:09;;;;;;;43.58;23.88;;;;;;;1.62;68.13;94654.94;2067915;69;20263;-71
2021/12/17 09:27:51;;;;;;;40.67;22.45;;;;;;;1.75;68.02;94657.97;2068098;69;20160;-72
2021/12/17 09:30:40;;;;;;;40.10;22.42;;;;;;;2.23;66.46;94651.31;2069639;69;20586;-72
2021/12/17 09:33:06;;;;;;;37.55;22.25;;;;;;;2.24;65.14;94647.25;2071761;69;20243;-70
2021/12/17 09:35:32;;;;;;;42.15;22.58;;;;;;;2.66;65.66;94650.19;2071361;69;20187;-71
2021/12/17 09:37:57;;;;;;;39.20;22.98;;;;;;;2.62;64.11;94647.66;2071413;69;20141;-70
2021/12/17 09:40:23;;;;;;;42.22;22.48;;;;;;;3.11;64.89;94639.56;2071511;69;20570;-71
2021/12/17 09:42:49;;;;;;;39.90;22.38;;;;;;;3.39;63.38;94631.03;2071448;69;20195;-69
2021/12/17 09:45:16;;;;;;;42.63;23.55;;;;;;;3.59;64.01;94629.09;2071669;69;20148;-71
2021/12/17 09:47:45;;;;;;;48.78;26.67;;;;;;;3.67;62.84;94638.41;2072036;69;20243;-72
2021/12/17 09:50:13;;;;;;;43.45;25.02;;;;;;;3.97;61.75;94632.81;2071970;69;20161;-71
2021/12/17 09:52:38;;;;;;;38.42;21.92;;;;;;;3.89;60.82;94626.31;2071810;69;20163;-72
2021/12/17 09:55:05;;;;;;;41.38;21.95;;;;;;;4.20;61.25;94614.59;2072094;69;20144;-71
2021/12/17 09:57:35;;;;;;;32.83;20.65;;;;;;;4.37;59.95;94611.63;2071951;69;20140;-69
2021/12/17 10:00:15;;;;;;;34.22;19.98;;;;;;;4.92;60.24;94595.47;2072002;69;20145;-72
2021/12/17 10:02:44;;;;;;;27.23;17.92;;;;;;;4.63;57.44;94602.72;2071916;69;20223;-70
2021/12/17 10:05:17;;;;;;;27.10;17.35;;;;;;;3.96;58.93;94595.84;2071920;69;20175;-71
2021/12/17 10:07:44;;;;;;;26.73;18.00;;;;;;;4.67;58.26;94580.81;2071838;69;20136;-68
2021/12/17 10:10:12;;;;;;;30.98;18.23;;;;;;;4.56;55.85;94584.50;2071910;69;20610;-68
2021/12/17 10:12:39;;;;;;;28.48;18.02;;;;;;;4.41;57.65;94578.63;2072023;69;20205;-69
2021/12/17 10:15:09;;;;;;;23.65;15.35;;;;;;;5.09;56.45;94572.91;2071952;69;20140;-69
2021/12/17 10:17:37;;;;;;;26.15;16.48;;;;;;;4.93;56.36;94566.28;2071933;69;20255;-69
2021/12/17 10:20:06;;;;;;;26.08;16.75;;;;;;;5.74;56.09;94563.22;2072064;69;20155;-69
2021/12/17 10:22:33;;;;;;;25.48;16.60;;;;;;;6.00;54.52;94567.38;2071785;69;20256;-70
2021/12/17 10:25:07;;;;;;;23.63;16.63;;;;;;;5.29;54.42;94563.22;2071683;69;20170;-68
2021/12/17 10:27:35;;;;;;;24.42;16.70;;;;;;;5.75;53.88;94559.13;2070399;69;20163;-68
2021/12/17 10:30:11;;;;;;;24.08;16.27;;;;;;;6.78;51.91;94556.69;2070227;69;20205;-69
2021/12/17 10:32:39;;;;;;;27.65;17.80;;;;;;;5.93;51.26;94559.63;2071010;69;20228;-70
2021/12/17 10:35:11;;;;;;;27.98;17.33;;;;;;;5.89;53.05;94550.78;2071876;69;20228;-69
2021/12/17 10:37:43;;;;;;;24.13;16.75;;;;;;;6.74;49.47;94550.69;2071422;69;20610;-70
2021/12/17 10:40:20;;;;;;;22.30;15.48;;;;;;;7.28;51.35;94549.19;2071695;69;20163;-69
2021/12/17 10:43:25;;;;;;;23.92;16.05;;;;;;;7.37;50.01;94535.47;2071734;69;20733;-71
2021/12/17 10:45:46;;;;;;;23.85;16.08;;;;;;;8.25;47.92;94538.63;2070944;69;20578;-70
2021/12/17 10:54:10;;;;;;;27.95;20.10;;;;;;;8.88;45.81;94535.56;2071713;69;20587;-69
2021/12/17 10:56:37;;;;;;;24.73;17.40;;;;;;;10.06;43.65;94532.56;2071568;69;20235;-68
2021/12/17 10:59:24;;;;;;;25.15;19.35;;;;;;;10.82;42.59;94536.59;2071750;69;20144;-69
2021/12/17 11:01:54;;;;;;;31.67;24.17;;;;;;;11.84;38.91;94534.91;2071604;69;20255;-69
2021/12/17 11:04:32;;;;;;;32.47;24.23;;;;;;;10.23;41.86;94536.88;2071645;69;20643;-70
2021/12/17 11:07:06;;;;;;;34.75;25.70;;;;;;;9.45;41.03;94524.13;2068511;69;20244;-69
2021/12/17 11:09:41;;;;;;;33.35;24.60;;;;;;;9.05;42.90;94521.78;2071721;69;20148;-69
2021/12/17 11:12:39;;;;;;;29.23;20.73;;;;;;;7.61;43.96;94528.03;2071766;69;20144;-70
2021/12/17 11:15:19;;;;;;;37.80;25.95;;;;;;;7.30;45.08;94513.75;2071865;69;20592;-71
2021/12/17 11:17:47;;;;;;;37.75;25.17;;;;;;;7.13;47.26;94528.16;2071747;69;20144;-69
2021/12/17 11:20:18;;;;;;;29.63;20.80;;;;;;;6.55;47.85;94526.38;2071542;69;20144;-69
2021/12/17 11:22:47;;;;;;;28.60;19.23;;;;;;;6.29;48.65;94513.19;2071293;69;20220;-69
2021/12/17 11:25:14;;;;;;;30.08;18.23;;;;;;;5.66;49.28;94509.25;2071441;69;20599;-70
2021/12/17 11:27:40;;;;;;;29.60;18.45;;;;;;;5.78;50.34;94504.22;2071597;69;20163;-69
2021/12/17 11:30:15;;;;;;;29.58;19.30;;;;;;;5.73;50.70;94516.25;2071404;69;20148;-70
2021/12/17 11:32:43;;;;;;;29.10;18.30;;;;;;;5.38;50.65;94511.78;2071525;69;20180;-70
2021/12/17 11:35:09;;;;;;;22.33;14.43;;;;;;;5.28;51.23;94495.44;2071578;69;20638;-70
2021/12/17 11:37:35;;;;;;;18.80;12.98;;;;;;;5.12;51.46;94498.50;2071378;69;20132;-70
2021/12/17 11:40:09;;;;;;;17.70;12.05;;;;;;;4.77;52.60;94492.69;2071445;69;20145;-70
2021/12/17 11:43:18;;;;;;;17.90;10.85;;;;;;;5.09;52.33;94495.47;2071377;69;20152;-69
2021/12/17 11:45:44;;;;;;;28.55;17.73;;;;;;;4.75;52.81;94488.91;2071580;69;20228;-70
2021/12/17 11:48:12;;;;;;;34.30;20.90;;;;;;;4.47;52.70;94484.47;2071339;69;20193;-70
2021/12/17 11:50:37;;;;;;;29.35;18.33;;;;;;;3.96;54.16;94480.81;2071400;69;20171;-69
2021/12/17 11:53:54;;;;;;;23.63;14.70;;;;;;;4.18;54.48;94472.19;2071665;69;20500;-69
2021/12/17 11:56:41;;;;;;;43.10;24.75;;;;;;;2.82;56.29;94474.06;2064160;69;20221;-69
2021/12/17 11:59:30;;;;;;;40.03;23.67;;;;;;;2.83;56.78;94463.69;2071613;69;20512;-69
2021/12/17 12:02:01;;;;;;;46.83;29.52;;;;;;;2.97;55.78;94457.00;2071651;69;20151;-69
2021/12/17 12:04:32;;;;;;;48.22;26.40;;;;;;;3.33;54.69;94446.56;2071567;69;20148;-70
2021/12/17 12:07:05;;;;;;;52.67;30.40;;;;;;;3.09;55.40;94449.31;2071626;69;20235;-69
2021/12/17 12:09:59;;;;;;;46.50;27.77;;;;;;;2.91;56.65;94445.19;2071562;69;20149;-69
2021/12/17 12:12:33;;;;;;;41.97;23.58;;;;;;;2.67;56.83;94443.84;2071564;69;20164;-70
2021/12/17 12:15:22;;;;;;;39.90;24.05;;;;;;;2.63;56.90;94443.38;2070808;69;20331;-69
2021/12/17 12:17:57;;;;;;;44.15;26.60;;;;;;;2.49;57.53;94439.69;2071456;69;20144;-69
2021/12/17 12:20:52;;;;;;;48.33;28.40;;;;;;;2.67;57.97;94446.63;2071457;69;20163;-72
2021/12/17 12:23:27;;;;;;;45.40;26.20;;;;;;;2.64;58.88;94452.47;2069848;69;20209;-69
2021/12/17 12:26:02;;;;;;;47.08;25.92;;;;;;;2.48;58.15;94459.66;2071203;69;20246;-69
2021/12/17 12:28:46;;;;;;;86.45;45.20;;;;;;;2.52;57.48;94471.25;2071236;69;20603;-69
2021/12/17 12:31:12;;;;;;;72.10;35.22;;;;;;;2.28;58.16;94483.75;2071536;69;20143;-69
2021/12/17 12:34:00;;;;;;;60.78;34.03;;;;;;;2.38;58.07;94486.25;2071459;69;20136;-69
2021/12/17 12:36:58;;;;;;;45.17;24.90;;;;;;;2.38;58.30;94494.59;2071241;69;20176;-69
2021/12/17 12:39:35;;;;;;;32.30;18.85;;;;;;;2.44;58.68;94495.31;2071364;69;20148;-68
2021/12/17 12:42:16;;;;;;;24.55;13.30;;;;;;;2.48;58.84;94484.69;2071356;69;20228;-68
2021/12/17 12:44:42;;;;;;;20.65;12.43;;;;;;;2.48;58.43;94487.47;2071405;69;20148;-68
2021/12/17 12:47:20;;;;;;;34.85;19.70;;;;;;;2.08;59.59;94481.34;2071433;69;20220;-68
2021/12/17 12:49:52;;;;;;;92.60;47.80;;;;;;;1.74;63.01;94462.06;2071357;69;20147;-69
2021/12/17 12:52:25;;;;;;;48.47;26.67;;;;;;;1.85;60.52;94469.59;2071129;69;20248;-70
2021/12/17 12:54:53;;;;;;;42.88;24.70;;;;;;;1.91;62.58;94464.75;2071334;69;20179;-69
2021/12/17 12:57:29;;;;;;;41.97;23.23;;;;;;;2.05;61.13;94462.91;2071406;69;20156;-71
2021/12/17 12:59:57;;;;;;;39.95;23.25;;;;;;;1.95;59.71;94464.50;2071358;69;20625;-71
2021/12/17 13:02:27;;;;;;;46.55;25.75;;;;;;;1.81;60.05;94457.22;2071391;69;20172;-71
2021/12/17 13:04:54;;;;;;;46.50;26.02;;;;;;;1.72;61.22;94458.28;2068017;69;20544;-70
2021/12/17 13:07:35;;;;;;;42.47;23.95;;;;;;;1.69;61.26;94460.03;2071429;69;20192;-71
2021/12/17 13:10:12;;;;;;;38.58;23.90;;;;;;;1.74;60.98;94464.06;2071351;69;20268;-70
2021/12/17 13:12:39;;;;;;;45.05;25.15;;;;;;;1.37;61.32;94456.84;2071441;69;20136;-69
2021/12/17 13:15:37;;;;;;;43.83;24.83;;;;;;;1.51;61.05;94457.81;2071308;69;20144;-69
2021/12/17 13:23:51;;;;;;;83.15;41.67;;;;;;;1.38;62.12;94449.31;2071901;69;20309;-69
2021/12/17 13:26:19;;;;;;;65.30;36.03;;;;;;;1.35;61.78;94451.06;2071914;69;20286;-70
2021/12/17 13:28:52;;;;;;;55.97;30.77;;;;;;;1.40;62.24;94430.88;2071936;69;20151;-69
2021/12/17 13:31:36;;;;;;;;;;;;;;;1.49;61.70;94427.06;2072404;69;20172;-70
2021/12/17 13:34:09;;;;;;;60.13;30.65;;;;;;;1.51;61.83;94416.19;2071898;69;20076;-70
2021/12/17 13:36:36;;;;;;;60.03;30.77;;;;;;;1.53;61.75;94414.44;2071871;69;20159;-67
2021/12/17 13:39:03;;;;;;;46.78;26.25;;;;;;;0.91;63.99;94407.53;2071883;69;20140;-70
2021/12/17 13:41:43;;;;;;;51.20;28.38;;;;;;;1.14;62.57;94417.31;2068380;69;20289;-68
2021/12/17 13:44:30;;;;;;;42.92;23.65;;;;;;;1.14;62.71;94417.31;2071713;69;20607;-70
2021/12/17 13:47:10;;;;;;;43.55;24.40;;;;;;;1.15;62.56;94420.88;2071683;69;20152;-69
2021/12/17 13:49:37;;;;;;;47.47;24.80;;;;;;;1.18;62.21;94420.56;2071908;69;20588;-69
2021/12/17 13:52:04;;;;;;;46.15;26.45;;;;;;;0.78;64.29;94421.94;2071841;69;20213;-69
2021/12/17 13:54:30;;;;;;;52.22;28.10;;;;;;;0.84;63.31;94417.13;2071799;69;20168;-70
2021/12/17 13:57:00;;;;;;;50.80;27.23;;;;;;;1.03;62.13;94420.13;2071792;69;20160;-70
2021/12/17 13:59:31;;;;;;;54.72;28.42;;;;;;;0.90;62.12;94417.09;2071942;69;20159;-70
2021/12/17 14:01:57;;;;;;;54.40;29.90;;;;;;;0.97;62.04;94419.38;2071898;69;20228;-67
2021/12/17 14:04:23;;;;;;;62.33;34.78;;;;;;;1.10;63.13;94419.59;2068432;69;20263;-68
2021/12/17 14:06:53;;;;;;;60.65;32.58;;;;;;;1.14;62.13;94420.09;2071567;69;20156;-69
2021/12/17 14:09:23;;;;;;;65.88;35.33;;;;;;;1.15;63.01;94420.88;2071794;69;20223;-69
2021/12/17 14:11:49;;;;;;;66.15;33.90;;;;;;;1.19;62.83;94422.13;2072034;69;20626;-70
2021/12/17 14:14:23;;;;;;;73.53;36.53;;;;;;;0.99;63.08;94414.06;2071540;69;20325;-71
2021/12/17 14:17:01;;;;;;;68.00;33.38;;;;;;;1.07;62.89;94412.28;2071757;69;20615;-71
2021/12/17 14:19:43;;;;;;;70.05;35.13;;;;;;;1.11;62.63;94401.69;2072156;69;20140;-71
2021/12/17 14:22:32;;;;;;;66.90;34.00;;;;;;;1.08;62.76;94399.19;2071766;69;20540;-69
2021/12/17 14:24:58;;;;;;;55.70;30.00;;;;;;;1.06;62.54;94396.91;2072011;69;20265;-69
2021/12/17 14:27:46;;;;;;;46.03;24.13;;;;;;;1.04;63.65;94393.88;2071870;69;20160;-69
2021/12/17 14:30:13;;;;;;;66.68;33.35;;;;;;;0.84;63.79;94388.63;2071966;69;20527;-69
2021/12/17 14:32:44;;;;;;;53.15;28.95;;;;;;;0.68;64.88;94387.38;2071661;69;20136;-69
2021/12/17 14:35:10;;;;;;;58.45;29.17;;;;;;;0.78;63.60;94383.13;2068682;69;20209;-69
2021/12/17 14:37:49;;;;;;;51.45;27.90;;;;;;;0.88;64.03;94389.91;2071726;69;20148;-69
2021/12/17 14:40:26;;;;;;;63.10;31.52;;;;;;;0.60;64.76;94384.38;2071867;69;20227;-70
2021/12/17 14:42:55;;;;;;;59.60;28.73;;;;;;;0.73;64.49;94386.63;2071932;69;20144;-69